Time;durP1;ratioP1;P1;durP2;ratioP2;P2;SDS_P1;SDS_P2;PMS_P1;PMS_P2;Temp;Humidity;BMP_temperature;BMP_pressure;BME280_temperature;BME280_humidity;BME280_pressure;Samples;Min_cycle;Max_cycle;Signal;HPM_P1;HPM_P2
2022/03/31 00:00:35;;;;;;;50.40;23.63;;;;;;;-141.50;100.00;63355.56;5091470;28;20054;-78
2022/03/31 00:03:05;;;;;;;40.05;21.77;;;;;;;-141.50;100.00;63355.56;5090490;28;20062;-78
2022/03/31 00:05:32;;;;;;;51.63;22.67;;;;;;;-141.50;100.00;63355.56;5090134;28;20058;-77
2022/03/31 00:08:01;;;;;;;41.50;21.13;;;;;;;-141.50;100.00;63355.56;5090810;28;20097;-78
2022/03/31 00:10:36;;;;;;;42.30;22.58;;;;;;;-141.50;100.00;63355.56;5097548;28;20138;-77
2022/03/31 00:13:05;;;;;;;39.03;21.20;;;;;;;-141.50;100.00;63355.56;5083730;28;20090;-78
2022/03/31 00:15:33;;;;;;;41.25;21.00;;;;;;;-141.50;100.00;63355.56;5109575;28;20087;-76
2022/03/31 00:18:01;;;;;;;42.83;21.13;;;;;;;-141.50;100.00;63355.56;5110492;28;20208;-78
2022/03/31 00:20:28;;;;;;;38.58;19.95;;;;;;;-141.50;100.00;63355.56;5110366;28;20110;-77
2022/03/31 00:22:55;;;;;;;37.85;20.08;;;;;;;-141.50;100.00;63355.56;5110598;28;20104;-78
2022/03/31 00:25:25;;;;;;;37.33;19.70;;;;;;;-141.50;100.00;63355.56;5111497;28;20138;-78
2022/03/31 00:27:52;;;;;;;34.72;19.08;;;;;;;-141.50;100.00;63355.56;5110813;28;20155;-77
2022/03/31 00:30:19;;;;;;;33.10;18.05;;;;;;;-141.50;100.00;63355.56;5109640;28;20063;-77
2022/03/31 00:32:45;;;;;;;31.67;17.85;;;;;;;-141.50;100.00;63355.56;5109241;28;20083;-77
2022/03/31 00:35:13;;;;;;;29.73;17.77;;;;;;;-141.50;100.00;63355.56;5110310;28;20123;-75
2022/03/31 00:37:41;;;;;;;30.58;16.83;;;;;;;-141.50;100.00;63355.56;5097075;28;20487;-78
2022/03/31 00:40:09;;;;;;;28.23;16.02;;;;;;;-141.50;100.00;63355.56;5094461;28;20048;-77
2022/03/31 00:42:40;;;;;;;30.27;16.50;;;;;;;-141.50;100.00;63355.56;5092334;28;20101;-78
2022/03/31 00:45:58;;;;;;;27.10;15.45;;;;;;;-141.50;100.00;63355.56;5089227;28;20439;-78
2022/03/31 00:48:27;;;;;;;31.63;16.40;;;;;;;-141.50;100.00;63355.56;5087363;28;20142;-79
2022/03/31 00:50:53;;;;;;;31.75;15.93;;;;;;;-141.50;100.00;63355.56;5094554;28;20044;-77
2022/03/31 00:53:20;;;;;;;30.08;15.50;;;;;;;-141.50;100.00;63355.56;5094788;28;20048;-78
2022/03/31 00:55:58;;;;;;;25.73;15.82;;;;;;;-141.50;100.00;63355.56;5095459;28;20064;-78
2022/03/31 00:58:25;;;;;;;32.40;16.20;;;;;;;-141.50;100.00;63355.56;5095805;28;20044;-77
2022/03/31 01:00:52;;;;;;;28.60;16.83;;;;;;;-141.50;100.00;63355.56;5094829;28;20044;-76
2022/03/31 01:03:18;;;;;;;31.10;17.17;;;;;;;-141.50;100.00;63355.56;5092328;28;20068;-77
2022/03/31 01:05:46;;;;;;;29.85;17.05;;;;;;;-141.50;100.00;63355.56;5093546;28;20052;-76
2022/03/31 01:08:12;;;;;;;26.95;16.10;;;;;;;-141.50;100.00;63355.56;5092515;28;20087;-78
2022/03/31 01:10:39;;;;;;;29.83;17.08;;;;;;;-141.50;100.00;63355.56;5100426;28;20082;-78
2022/03/31 01:13:09;;;;;;;34.63;17.40;;;;;;;-141.50;100.00;63355.56;5085785;28;20544;-77
2022/03/31 01:15:36;;;;;;;31.77;17.40;;;;;;;-141.50;100.00;63355.56;5110613;28;20055;-77
2022/03/31 01:18:03;;;;;;;31.77;17.08;;;;;;;-141.50;100.00;63355.56;5112390;28;20047;-77
2022/03/31 01:20:29;;;;;;;29.08;16.63;;;;;;;-141.50;100.00;63355.56;5109695;28;20700;-77
2022/03/31 01:22:59;;;;;;;29.00;17.38;;;;;;;-141.50;100.00;63355.56;5109771;28;20075;-76
2022/03/31 01:25:26;;;;;;;29.63;17.42;;;;;;;-141.50;100.00;63355.56;5110022;28;20135;-77
2022/03/31 01:27:52;;;;;;;29.75;16.88;;;;;;;-141.50;100.00;63355.56;5109510;28;20106;-78
2022/03/31 01:30:22;;;;;;;29.15;16.92;;;;;;;-141.50;100.00;63355.56;5108775;28;20138;-77
2022/03/31 01:32:49;;;;;;;35.22;16.77;;;;;;;-141.50;100.00;63355.56;5108460;28;20051;-76
2022/03/31 01:35:16;;;;;;;33.85;19.27;;;;;;;-141.50;100.00;63355.56;5110596;28;20090;-78
2022/03/31 01:37:43;;;;;;;29.33;16.20;;;;;;;-141.50;100.00;63355.56;5110628;28;20130;-77
2022/03/31 01:40:11;;;;;;;31.17;18.02;;;;;;;-141.50;100.00;63355.56;5109662;28;20521;-77
2022/03/31 01:42:38;;;;;;;33.78;16.55;;;;;;;-141.50;100.00;63355.56;5108589;28;20511;-78
2022/03/31 01:45:08;;;;;;;27.25;16.30;;;;;;;-141.50;100.00;63355.56;5090243;28;20104;-77
2022/03/31 01:47:35;;;;;;;29.85;16.83;;;;;;;-141.50;100.00;63355.56;5091150;28;20079;-77
2022/03/31 01:50:09;;;;;;;33.63;17.40;;;;;;;-141.50;100.00;63355.56;5109037;28;20088;-77
2022/03/31 01:52:39;;;;;;;32.97;16.70;;;;;;;-141.50;100.00;63355.56;5108689;28;20104;-77
2022/03/31 01:55:07;;;;;;;27.38;16.60;;;;;;;-141.50;100.00;63355.56;5109230;28;20525;-76
2022/03/31 01:57:34;;;;;;;29.55;15.90;;;;;;;-141.50;100.00;63355.56;5109139;28;20104;-76
2022/03/31 02:00:03;;;;;;;29.40;16.27;;;;;;;-141.50;100.00;63355.56;5108231;28;20086;-77
2022/03/31 02:02:30;;;;;;;27.23;15.05;;;;;;;-141.50;100.00;63355.56;5107829;28;20083;-77
2022/03/31 02:04:57;;;;;;;26.23;15.23;;;;;;;-141.50;100.00;63355.56;5109122;28;20051;-77
2022/03/31 02:07:23;;;;;;;23.83;14.90;;;;;;;-141.50;100.00;63355.56;5111026;28;20105;-76
2022/03/31 02:09:50;;;;;;;24.27;15.10;;;;;;;-141.50;100.00;63355.56;5087479;28;20186;-77
2022/03/31 02:12:17;;;;;;;26.50;14.90;;;;;;;-141.50;100.00;63355.56;5098919;28;20109;-77
2022/03/31 02:14:43;;;;;;;26.48;15.50;;;;;;;-141.50;100.00;63355.56;5107389;28;20052;-77
2022/03/31 02:17:11;;;;;;;28.85;15.00;;;;;;;-141.50;100.00;63355.56;5108273;28;20074;-76
2022/03/31 02:19:38;;;;;;;25.20;14.02;;;;;;;-141.50;100.00;63355.56;5107431;28;20093;-77
2022/03/31 02:22:05;;;;;;;24.10;14.13;;;;;;;-141.50;100.00;63355.56;5107765;28;20056;-77
2022/03/31 02:24:34;;;;;;;25.17;14.73;;;;;;;-141.50;100.00;63355.56;5109157;28;20049;-78
2022/03/31 02:27:02;;;;;;;27.45;15.30;;;;;;;-141.50;100.00;63355.56;5108595;28;20467;-79
2022/03/31 02:29:28;;;;;;;25.90;14.52;;;;;;;-141.50;100.00;63355.56;5109439;28;20048;-77
2022/03/31 02:31:56;;;;;;;25.45;15.75;;;;;;;-141.50;100.00;63355.56;5111770;28;20082;-79
2022/03/31 02:34:23;;;;;;;26.27;15.50;;;;;;;-141.50;100.00;63355.56;5095337;28;20552;-77
2022/03/31 02:36:49;;;;;;;26.30;16.05;;;;;;;-141.50;100.00;63355.56;5091920;28;20055;-76
2022/03/31 02:39:16;;;;;;;23.02;15.02;;;;;;;-141.50;100.00;63355.56;5112520;28;20052;-76
2022/03/31 02:41:43;;;;;;;28.88;15.90;;;;;;;-141.50;100.00;63355.56;5111949;28;20048;-76
2022/03/31 02:44:10;;;;;;;27.42;15.70;;;;;;;-141.50;100.00;63355.56;5094449;28;20516;-77
2022/03/31 02:46:37;;;;;;;26.25;15.27;;;;;;;-141.50;100.00;63355.56;5109516;28;20052;-77
2022/03/31 02:49:04;;;;;;;33.50;16.10;;;;;;;-141.50;100.00;63355.56;5111492;28;20119;-76
2022/03/31 02:51:30;;;;;;;28.63;16.25;;;;;;;-141.50;100.00;63355.56;5111926;28;20055;-77
2022/03/31 02:56:42;;;;;;;30.42;16.60;;;;;;;-141.50;100.00;63355.56;5099023;28;20048;-79
2022/03/31 02:59:08;;;;;;;26.55;16.58;;;;;;;-141.50;100.00;63355.56;5092408;28;20084;-76
2022/03/31 03:01:35;;;;;;;30.33;16.75;;;;;;;-141.50;100.00;63355.56;5072122;28;20048;-78
2022/03/31 03:04:02;;;;;;;32.65;17.67;;;;;;;-141.50;100.00;63355.56;5091285;28;20553;-77
2022/03/31 03:06:29;;;;;;;28.63;16.92;;;;;;;-141.50;100.00;63355.56;5092531;28;20048;-78
2022/03/31 03:08:55;;;;;;;33.58;17.77;;;;;;;-141.50;100.00;63355.56;5091762;28;20060;-78
2022/03/31 03:11:22;;;;;;;30.10;17.52;;;;;;;-141.50;100.00;63355.56;5100661;28;20074;-77
2022/03/31 03:13:49;;;;;;;29.40;17.95;;;;;;;-141.50;100.00;63355.56;5113973;28;20056;-79
2022/03/31 03:16:16;;;;;;;28.20;16.90;;;;;;;-141.50;100.00;63355.56;5113740;28;20109;-77
2022/03/31 03:18:43;;;;;;;32.28;17.83;;;;;;;-141.50;100.00;63355.56;5118773;28;20058;-77
2022/03/31 03:21:09;;;;;;;30.10;17.95;;;;;;;-141.50;100.00;63355.56;5112062;28;20059;-76
2022/03/31 03:23:37;;;;;;;34.97;19.13;;;;;;;-141.50;100.00;63355.56;5112394;28;20079;-77
2022/03/31 03:26:05;;;;;;;35.00;18.40;;;;;;;-141.50;100.00;63355.56;5112600;28;20082;-77
2022/03/31 03:28:36;;;;;;;35.05;18.80;;;;;;;-141.50;100.00;63355.56;5111947;28;20130;-79
2022/03/31 03:31:04;;;;;;;35.33;19.50;;;;;;;-141.50;100.00;63355.56;5110086;28;20123;-76
2022/03/31 03:33:31;;;;;;;34.80;20.33;;;;;;;-141.50;100.00;63355.56;5112023;28;20119;-76
2022/03/31 03:36:03;;;;;;;36.38;20.27;;;;;;;-141.50;100.00;63355.56;5111984;28;20456;-75
2022/03/31 03:38:35;;;;;;;34.75;19.73;;;;;;;-141.50;100.00;63355.56;5111864;28;20051;-77
2022/03/31 03:41:02;;;;;;;41.83;21.30;;;;;;;-141.50;100.00;63355.56;5111345;28;20070;-75
2022/03/31 03:43:31;;;;;;;40.15;20.55;;;;;;;-141.50;100.00;63355.56;5111675;28;20051;-79
2022/03/31 03:45:57;;;;;;;41.45;20.83;;;;;;;-141.50;100.00;63355.56;5111033;28;20171;-76
2022/03/31 03:48:24;;;;;;;37.35;20.30;;;;;;;-141.50;100.00;63355.56;5111583;28;20048;-75
2022/03/31 03:50:51;;;;;;;37.85;20.25;;;;;;;-141.50;100.00;63355.56;5111024;28;20047;-79
2022/03/31 03:53:17;;;;;;;44.42;22.98;;;;;;;-141.50;100.00;63355.56;5112103;28;20052;-78
2022/03/31 03:55:44;;;;;;;43.63;21.55;;;;;;;-141.50;100.00;63355.56;5111733;28;20069;-75
2022/03/31 03:58:10;;;;;;;43.33;22.33;;;;;;;-141.50;100.00;63355.56;5112830;28;20097;-75
2022/03/31 04:00:38;;;;;;;45.25;22.73;;;;;;;-141.50;100.00;63355.56;5111505;28;20499;-76
2022/03/31 04:03:05;;;;;;;40.58;21.88;;;;;;;-141.50;100.00;63355.56;5111490;28;20551;-75
2022/03/31 04:05:31;;;;;;;49.03;23.15;;;;;;;-141.50;100.00;63355.56;5111416;28;20142;-77
2022/03/31 04:07:58;;;;;;;47.95;23.13;;;;;;;-141.50;100.00;63355.56;5111095;28;20410;-77
2022/03/31 04:10:25;;;;;;;45.05;22.38;;;;;;;-141.50;100.00;63355.56;5101506;28;20048;-77
2022/03/31 04:12:51;;;;;;;48.10;23.50;;;;;;;-141.50;100.00;63355.56;5097909;28;20080;-77
2022/03/31 04:15:18;;;;;;;44.92;22.67;;;;;;;-141.50;100.00;63355.56;5088840;28;20048;-77
2022/03/31 04:17:45;;;;;;;42.25;22.33;;;;;;;-141.50;100.00;63355.56;5089998;28;20051;-75
2022/03/31 04:20:13;;;;;;;41.90;21.90;;;;;;;-141.50;100.00;63355.56;5089664;28;20044;-76
2022/03/31 04:22:41;;;;;;;45.03;22.33;;;;;;;-141.50;100.00;63355.56;5089423;28;20063;-76
2022/03/31 04:25:10;;;;;;;45.45;22.20;;;;;;;-141.50;100.00;63355.56;5091364;28;20458;-81
2022/03/31 04:27:38;;;;;;;46.20;23.35;;;;;;;-141.50;100.00;63355.56;5091078;28;20055;-77
2022/03/31 04:30:12;;;;;;;48.25;23.63;;;;;;;-141.50;100.00;63355.56;5093895;28;20103;-78
2022/03/31 04:32:38;;;;;;;49.17;23.63;;;;;;;-141.50;100.00;63355.56;5093725;28;20056;-79
2022/03/31 04:35:14;;;;;;;46.15;23.63;;;;;;;-141.50;100.00;63355.56;5089838;28;20481;-76
2022/03/31 04:37:41;;;;;;;47.85;22.98;;;;;;;-141.50;100.00;63355.56;5089807;28;20529;-78
2022/03/31 04:40:09;;;;;;;53.65;24.63;;;;;;;-141.50;100.00;63355.56;5090319;28;20522;-76
2022/03/31 04:42:36;;;;;;;51.47;25.05;;;;;;;-141.50;100.00;63355.56;5088310;28;20048;-76
2022/03/31 04:45:03;;;;;;;53.75;25.45;;;;;;;-141.50;100.00;63355.56;5088692;28;20104;-78
2022/03/31 04:47:30;;;;;;;48.67;24.30;;;;;;;-141.50;100.00;63355.56;5089246;28;20491;-76
2022/03/31 04:49:57;;;;;;;51.45;25.88;;;;;;;-141.50;100.00;63355.56;5088908;28;20147;-76
2022/03/31 04:52:23;;;;;;;52.70;25.67;;;;;;;-141.50;100.00;63355.56;5088138;28;20697;-77
2022/03/31 04:54:51;;;;;;;49.85;25.52;;;;;;;-141.50;100.00;63355.56;5090186;28;20052;-78
2022/03/31 04:57:18;;;;;;;55.40;26.60;;;;;;;-141.50;100.00;63355.56;5089222;28;20778;-79
2022/03/31 04:59:45;;;;;;;55.97;27.00;;;;;;;-141.50;100.00;63355.56;5088794;28;20090;-79
2022/03/31 05:02:12;;;;;;;58.53;26.98;;;;;;;-141.50;100.00;63355.56;5086941;28;20629;-77
2022/03/31 05:04:40;;;;;;;54.20;26.58;;;;;;;-141.50;100.00;63355.56;5088969;28;20052;-76
2022/03/31 05:07:06;;;;;;;52.25;25.33;;;;;;;-141.50;100.00;63355.56;5088059;28;20048;-76
2022/03/31 05:09:33;;;;;;;52.42;25.25;;;;;;;-141.50;100.00;63355.56;5089196;28;20487;-76
2022/03/31 05:11:59;;;;;;;55.55;26.33;;;;;;;-141.50;100.00;63355.56;5098965;28;20513;-79
2022/03/31 05:14:26;;;;;;;58.40;27.58;;;;;;;-141.50;100.00;63355.56;5108331;28;20479;-77
2022/03/31 05:16:53;;;;;;;54.97;25.63;;;;;;;-141.50;100.00;63355.56;5108609;28;20047;-78
2022/03/31 05:19:20;;;;;;;51.10;25.73;;;;;;;-141.50;100.00;63355.56;5098476;28;20075;-76
2022/03/31 05:21:47;;;;;;;53.53;25.45;;;;;;;-141.50;100.00;63355.56;5083899;28;20131;-77
2022/03/31 05:24:13;;;;;;;54.60;27.08;;;;;;;-141.50;100.00;63355.56;5083961;28;20105;-77
2022/03/31 05:26:42;;;;;;;58.97;27.88;;;;;;;-141.50;100.00;63355.56;5066013;28;20048;-76
2022/03/31 05:29:08;;;;;;;61.85;29.60;;;;;;;-141.50;100.00;63355.56;5085214;28;20083;-77
2022/03/31 05:31:35;;;;;;;63.33;29.73;;;;;;;-141.50;100.00;63355.56;5083641;28;20083;-78
2022/03/31 05:34:02;;;;;;;66.03;30.08;;;;;;;-141.50;100.00;63355.56;5083452;28;20192;-76
2022/03/31 05:36:29;;;;;;;67.53;30.77;;;;;;;-141.50;100.00;63355.56;5085168;28;20914;-79
2022/03/31 05:38:56;;;;;;;62.33;29.30;;;;;;;-141.50;100.00;63355.56;5090100;28;20052;-78
2022/03/31 05:41:24;;;;;;;64.18;30.75;;;;;;;-141.50;100.00;63355.56;5084389;28;20056;-79
2022/03/31 05:43:51;;;;;;;63.47;30.77;;;;;;;-141.50;100.00;63355.56;5093417;28;20048;-80
2022/03/31 05:46:21;;;;;;;70.05;31.20;;;;;;;-141.50;100.00;63355.56;5089314;28;20056;-78
2022/03/31 05:48:48;;;;;;;60.05;31.15;;;;;;;-141.50;100.00;63355.56;5083992;28;20052;-79
2022/03/31 05:51:15;;;;;;;66.15;31.95;;;;;;;-141.50;100.00;63355.56;5092782;28;20132;-78
2022/03/31 05:53:44;;;;;;;70.57;33.45;;;;;;;-141.50;100.00;63355.56;5084810;28;20082;-77
2022/03/31 05:56:11;;;;;;;72.45;33.35;;;;;;;-141.50;100.00;63355.56;5084886;28;20056;-77
2022/03/31 05:58:37;;;;;;;69.65;32.13;;;;;;;-141.50;100.00;63355.56;5086661;28;20094;-75
2022/03/31 06:01:04;;;;;;;75.95;34.20;;;;;;;-141.50;100.00;63355.56;5104322;28;20706;-78
2022/03/31 06:03:31;;;;;;;77.80;34.92;;;;;;;-141.50;100.00;63355.56;5091893;28;20086;-78
2022/03/31 06:05:58;;;;;;;81.13;35.58;;;;;;;-141.50;100.00;63355.56;5095811;28;20078;-76
2022/03/31 06:08:25;;;;;;;79.78;36.83;;;;;;;-141.50;100.00;63355.56;5111500;28;20471;-76
2022/03/31 06:10:51;;;;;;;77.60;35.45;;;;;;;-141.50;100.00;63355.56;5084371;28;20044;-77
2022/03/31 06:13:18;;;;;;;83.13;36.53;;;;;;;-141.50;100.00;63355.56;5088020;28;20079;-77
2022/03/31 06:15:45;;;;;;;80.78;36.17;;;;;;;-141.50;100.00;63355.56;5100828;28;20079;-76
2022/03/31 06:18:12;;;;;;;82.00;37.08;;;;;;;-141.50;100.00;63355.56;5086750;28;20134;-76
2022/03/31 06:20:39;;;;;;;81.43;36.85;;;;;;;-141.50;100.00;63355.56;5087680;28;20066;-77
2022/03/31 06:23:05;;;;;;;83.97;37.63;;;;;;;-141.50;100.00;63355.56;5089728;28;20052;-76
2022/03/31 06:25:32;;;;;;;75.90;34.90;;;;;;;-141.50;100.00;63355.56;5089609;28;20048;-77
2022/03/31 06:27:58;;;;;;;81.90;36.08;;;;;;;-141.50;100.00;63355.56;5087881;28;20188;-77
2022/03/31 06:30:25;;;;;;;81.88;35.45;;;;;;;-141.50;100.00;63355.56;5069711;28;20055;-76
2022/03/31 06:32:52;;;;;;;74.45;34.28;;;;;;;-141.50;100.00;63355.56;5087843;28;20064;-77
2022/03/31 06:35:19;;;;;;;75.60;36.70;;;;;;;-141.50;100.00;63355.56;5089997;28;20048;-77
2022/03/31 06:37:47;;;;;;;81.15;36.15;;;;;;;-141.50;100.00;63355.56;5089077;28;20125;-76
2022/03/31 06:40:15;;;;;;;77.50;35.63;;;;;;;-141.50;100.00;63355.56;5090521;28;20518;-77
2022/03/31 06:42:43;;;;;;;78.22;35.85;;;;;;;-141.50;100.00;63355.56;5091279;28;20054;-76
2022/03/31 06:45:12;;;;;;;82.10;35.20;;;;;;;-141.50;100.00;63355.56;5091704;28;20074;-77
2022/03/31 06:47:55;;;;;;;73.72;33.88;;;;;;;-141.50;100.00;63355.56;5094411;28;20044;-77
2022/03/31 06:50:25;;;;;;;71.63;33.05;;;;;;;-141.50;100.00;63355.56;5094543;28;20151;-77
2022/03/31 06:52:52;;;;;;;70.38;33.13;;;;;;;-141.50;100.00;63355.56;5093827;28;20052;-78
2022/03/31 06:55:18;;;;;;;65.03;32.78;;;;;;;-141.50;100.00;63355.56;5093875;28;20135;-76
2022/03/31 06:57:45;;;;;;;72.70;33.50;;;;;;;-141.50;100.00;63355.56;5088369;28;20052;-76
2022/03/31 07:00:12;;;;;;;68.00;32.38;;;;;;;-141.50;100.00;63355.56;5086880;28;20083;-77
2022/03/31 07:02:38;;;;;;;70.05;33.05;;;;;;;-141.50;100.00;63355.56;5087480;28;20048;-77
2022/03/31 07:05:15;;;;;;;70.43;32.67;;;;;;;-141.50;100.00;63355.56;5088037;28;20048;-77
2022/03/31 07:07:42;;;;;;;64.35;31.83;;;;;;;-141.50;100.00;63355.56;5107190;28;20079;-77
2022/03/31 07:10:09;;;;;;;70.15;32.63;;;;;;;-141.50;100.00;63355.56;5103285;28;20201;-78
2022/03/31 07:12:39;;;;;;;66.57;33.03;;;;;;;-141.50;100.00;63355.56;5081627;28;20079;-76
2022/03/31 07:15:07;;;;;;;70.75;33.38;;;;;;;-141.50;100.00;63355.56;5081707;28;20448;-77
2022/03/31 07:17:34;;;;;;;63.40;31.58;;;;;;;-141.50;100.00;63355.56;5071449;28;20178;-76
2022/03/31 07:20:00;;;;;;;63.65;31.55;;;;;;;-141.50;100.00;63355.56;5087846;28;20132;-76
2022/03/31 07:22:27;;;;;;;61.53;30.77;;;;;;;-141.50;100.00;63355.56;5086883;28;20523;-79
2022/03/31 07:24:53;;;;;;;67.90;32.42;;;;;;;-141.50;100.00;63355.56;5093778;28;20044;-78
2022/03/31 07:27:20;;;;;;;63.80;32.15;;;;;;;-141.50;100.00;63355.56;5097075;28;20052;-79
2022/03/31 07:29:46;;;;;;;71.88;32.72;;;;;;;-141.50;100.00;63355.56;5097130;28;20108;-78
2022/03/31 07:32:13;;;;;;;73.40;35.58;;;;;;;-141.50;100.00;63355.56;5103436;28;20101;-77
2022/03/31 07:34:40;;;;;;;70.15;33.22;;;;;;;-141.50;100.00;63355.56;5114940;28;20048;-76
2022/03/31 07:37:07;;;;;;;66.25;32.97;;;;;;;-141.50;100.00;63355.56;5114090;28;20135;-78
2022/03/31 07:39:35;;;;;;;72.38;34.50;;;;;;;-141.50;100.00;63355.56;5116916;28;20048;-78
2022/03/31 07:42:02;;;;;;;71.97;34.10;;;;;;;-141.50;100.00;63355.56;5115968;28;20104;-78
2022/03/31 07:44:29;;;;;;;72.50;34.13;;;;;;;-141.50;100.00;63355.56;5118051;28;20054;-78
2022/03/31 07:46:56;;;;;;;74.57;35.30;;;;;;;-141.50;100.00;63355.56;5117280;28;20055;-76
2022/03/31 07:49:23;;;;;;;71.05;34.10;;;;;;;-141.50;100.00;63355.56;5113851;28;20252;-77
2022/03/31 07:51:50;;;;;;;73.68;34.60;;;;;;;-141.50;100.00;63355.56;5116683;28;20067;-77
2022/03/31 07:54:16;;;;;;;67.43;33.38;;;;;;;-141.50;100.00;63355.56;5116519;28;20593;-78
2022/03/31 07:56:43;;;;;;;70.35;33.80;;;;;;;-141.50;100.00;63355.56;5110007;28;20048;-77
2022/03/31 07:59:10;;;;;;;69.35;34.83;;;;;;;-141.50;100.00;63355.56;5090521;28;20048;-77
2022/03/31 08:01:36;;;;;;;71.05;33.15;;;;;;;-141.50;100.00;63355.56;5089997;28;20048;-77
2022/03/31 08:04:05;;;;;;;68.65;32.35;;;;;;;-141.50;100.00;63355.56;5090263;28;20074;-78
2022/03/31 08:06:32;;;;;;;67.68;32.95;;;;;;;-141.50;100.00;63355.56;5091353;28;20063;-76
2022/03/31 08:08:58;;;;;;;66.57;32.25;;;;;;;-141.50;100.00;63355.56;5092494;28;20075;-77
2022/03/31 08:11:29;;;;;;;67.63;32.92;;;;;;;-141.50;100.00;63355.56;5104739;28;20551;-76
2022/03/31 08:13:55;;;;;;;68.63;33.42;;;;;;;-141.50;100.00;63355.56;5121969;28;20440;-77
2022/03/31 08:16:22;;;;;;;66.90;34.20;;;;;;;-141.50;100.00;63355.56;5110952;28;20083;-76
2022/03/31 08:18:50;;;;;;;67.60;34.25;;;;;;;-141.50;100.00;63355.56;5109823;28;20075;-78
2022/03/31 08:21:16;;;;;;;66.75;33.10;;;;;;;-141.50;100.00;63355.56;5110406;28;20506;-76
2022/03/31 08:23:43;;;;;;;69.03;34.00;;;;;;;-141.50;100.00;63355.56;5110717;28;20585;-75
2022/03/31 08:26:09;;;;;;;71.47;33.97;;;;;;;-141.50;100.00;63355.56;5102375;28;20464;-76
2022/03/31 08:28:36;;;;;;;68.72;33.80;;;;;;;-141.50;100.00;63355.56;5095676;28;20146;-76
2022/03/31 08:31:03;;;;;;;70.57;34.28;;;;;;;-141.50;100.00;63355.56;5090166;28;20048;-74
2022/03/31 08:33:29;;;;;;;76.85;36.03;;;;;;;-141.50;100.00;63355.56;5089398;28;20185;-76
2022/03/31 08:35:56;;;;;;;79.90;36.88;;;;;;;-141.50;100.00;63355.56;5091849;28;20113;-76
2022/03/31 08:38:22;;;;;;;80.28;37.22;;;;;;;-141.50;100.00;63355.56;5089752;28;20090;-75
2022/03/31 08:40:50;;;;;;;88.22;39.53;;;;;;;-141.50;100.00;63355.56;5093547;28;20041;-75
2022/03/31 08:43:19;;;;;;;80.53;38.08;;;;;;;-141.50;100.00;63355.56;5095155;28;20059;-76
2022/03/31 08:45:54;;;;;;;78.30;37.72;;;;;;;-141.50;100.00;63355.56;5093597;28;20530;-76
2022/03/31 08:48:24;;;;;;;83.22;37.25;;;;;;;-141.50;100.00;63355.56;5092549;28;20097;-77
2022/03/31 08:50:50;;;;;;;78.80;37.30;;;;;;;-141.50;100.00;63355.56;5073129;28;20574;-77
2022/03/31 08:53:17;;;;;;;77.45;36.70;;;;;;;-141.50;100.00;63355.56;5091641;28;20063;-76
2022/03/31 08:55:44;;;;;;;80.80;36.40;;;;;;;-141.50;100.00;63355.56;5092490;28;20091;-76
2022/03/31 08:58:10;;;;;;;72.00;34.97;;;;;;;-141.50;100.00;63355.56;5090903;28;20086;-76
2022/03/31 09:00:38;;;;;;;71.72;34.20;;;;;;;-141.50;100.00;63355.56;5090901;28;20139;-77
2022/03/31 09:03:09;;;;;;;69.25;34.20;;;;;;;-141.50;100.00;63355.56;5091444;28;20413;-78
2022/03/31 09:05:53;;;;;;;67.30;33.67;;;;;;;-141.50;100.00;63355.56;5092194;28;20052;-76
2022/03/31 09:08:20;;;;;;;71.85;34.17;;;;;;;-141.50;100.00;63355.56;5090735;28;20052;-75
2022/03/31 09:10:53;;;;;;;70.40;34.53;;;;;;;-141.50;100.00;63355.56;5097596;28;20156;-77
2022/03/31 09:13:25;;;;;;;65.57;32.40;;;;;;;-141.50;100.00;63355.56;5104585;28;20048;-76
2022/03/31 09:15:56;;;;;;;70.60;34.97;;;;;;;-141.50;100.00;63355.56;5109091;28;20132;-75
2022/03/31 09:18:26;;;;;;;74.15;35.00;;;;;;;-141.50;100.00;63355.56;5110357;28;20104;-76
2022/03/31 09:20:55;;;;;;;67.50;33.95;;;;;;;-141.50;100.00;63355.56;5110889;28;20538;-77
2022/03/31 09:23:32;;;;;;;68.32;33.15;;;;;;;-141.50;100.00;63355.56;5109811;28;20087;-77
2022/03/31 09:26:12;;;;;;;68.50;33.38;;;;;;;-141.50;100.00;63355.56;5109817;28;20823;-76
2022/03/31 09:28:40;;;;;;;66.18;31.70;;;;;;;-141.50;100.00;63355.56;5109601;28;20530;-78
2022/03/31 09:31:10;;;;;;;64.05;31.92;;;;;;;-141.50;100.00;63355.56;5108907;28;20048;-78
2022/03/31 09:33:44;;;;;;;62.47;31.95;;;;;;;-141.50;100.00;63355.56;5111026;28;20544;-76
2022/03/31 09:36:16;;;;;;;65.30;32.08;;;;;;;-141.50;100.00;63355.56;5113089;28;20131;-79
2022/03/31 09:38:52;;;;;;;62.55;31.90;;;;;;;-141.50;100.00;63355.56;5119945;28;20427;-76
2022/03/31 09:41:28;;;;;;;63.92;31.33;;;;;;;-141.50;100.00;63355.56;5120839;28;20073;-75
2022/03/31 09:43:56;;;;;;;66.50;30.38;;;;;;;-141.50;100.00;63355.56;5114516;28;20433;-76
2022/03/31 09:46:23;;;;;;;62.00;30.70;;;;;;;-141.50;100.00;63355.56;5096424;28;20067;-77
2022/03/31 09:48:57;;;;;;;59.75;28.17;;;;;;;-141.50;100.00;63355.56;5092149;28;20074;-76
2022/03/31 09:51:25;;;;;;;55.70;27.75;;;;;;;-141.50;100.00;63355.56;5089668;28;20048;-77
2022/03/31 09:53:53;;;;;;;51.35;27.38;;;;;;;-141.50;100.00;63355.56;5088184;28;20083;-76
2022/03/31 09:56:26;;;;;;;57.38;28.35;;;;;;;-141.50;100.00;63355.56;5103485;28;20139;-77
2022/03/31 09:59:00;;;;;;;55.28;28.33;;;;;;;-141.50;100.00;63355.56;5105793;28;20051;-77
2022/03/31 10:01:27;;;;;;;55.38;29.00;;;;;;;-141.50;100.00;63355.56;5109285;28;20567;-77
2022/03/31 10:03:56;;;;;;;63.00;30.17;;;;;;;-141.50;100.00;63355.56;5109012;28;20059;-76
2022/03/31 10:06:24;;;;;;;61.25;30.52;;;;;;;-141.50;100.00;63355.56;5109121;28;20047;-76
2022/03/31 10:08:52;;;;;;;62.92;32.40;;;;;;;-141.50;100.00;63355.56;5109024;28;20055;-77
2022/03/31 10:11:19;;;;;;;63.38;31.67;;;;;;;-141.50;100.00;63355.56;5098094;28;20443;-77
2022/03/31 10:14:08;;;;;;;62.58;31.25;;;;;;;-141.50;100.00;63355.56;5105788;28;20051;-76
2022/03/31 10:16:53;;;;;;;66.68;33.03;;;;;;;-141.50;100.00;63355.56;5107982;28;20448;-75
2022/03/31 10:19:29;;;;;;;61.85;31.55;;;;;;;-141.50;100.00;63355.56;5112903;28;20055;-76
2022/03/31 10:22:01;;;;;;;73.75;32.50;;;;;;;-141.50;100.00;63355.56;5088341;28;20044;-77
2022/03/31 10:24:46;;;;;;;63.85;31.70;;;;;;;-141.50;100.00;63355.56;5098939;28;20787;-78
2022/03/31 10:27:34;;;;;;;75.53;34.70;;;;;;;-141.50;100.00;63355.56;5084445;28;20571;-77
2022/03/31 10:30:07;;;;;;;70.18;34.40;;;;;;;-141.50;100.00;63355.56;5089125;28;20048;-75
2022/03/31 10:32:34;;;;;;;76.32;34.03;;;;;;;-141.50;100.00;63355.56;5089280;28;20047;-79
2022/03/31 10:35:01;;;;;;;77.38;36.97;;;;;;;-141.50;100.00;63355.56;5091473;28;20048;-78
2022/03/31 10:37:36;;;;;;;68.80;34.58;;;;;;;-141.50;100.00;63355.56;5098717;28;20052;-79
2022/03/31 10:40:09;;;;;;;77.40;35.88;;;;;;;-141.50;100.00;63355.56;5112280;28;20066;-78
2022/03/31 10:42:37;;;;;;;71.72;36.15;;;;;;;-141.50;100.00;63355.56;5101658;28;20055;-77
2022/03/31 10:45:13;;;;;;;68.20;34.35;;;;;;;-141.50;100.00;63355.56;5091257;28;20652;-78
2022/03/31 10:47:43;;;;;;;;;;;;;;;-141.50;100.00;63355.56;5091441;28;20051;-79
2022/03/31 10:50:25;;;;;;;74.45;35.38;;;;;;;-141.50;100.00;63355.56;5091251;28;19923;-77
2022/03/31 10:53:05;;;;;;;68.40;34.95;;;;;;;-141.50;100.00;63355.56;5092701;28;20520;-76
2022/03/31 10:55:47;;;;;;;66.73;36.13;;;;;;;-141.50;100.00;63355.56;5073890;28;20059;-75
2022/03/31 10:58:28;;;;;;;70.25;36.78;;;;;;;-141.50;100.00;63355.56;5074988;28;20066;-78
2022/03/31 11:00:57;;;;;;;67.85;34.95;;;;;;;-141.50;100.00;63355.56;5095459;28;20078;-76
2022/03/31 11:03:24;;;;;;;67.70;34.35;;;;;;;-141.50;100.00;63355.56;5099169;28;20117;-77